Forney's Hourly Summary for Thursday, March 16, 2017
Hour Temp
(f)
RH
(%)
Solar Rad.
(MJ/m2)
Rainfall
(in)
Wind
(mph)
3/16/2017 12:00 AM 53 63 0 0 4.18
3/16/2017 1:00 AM 51 66 0 0 3.31
3/16/2017 2:00 AM 50 70 0 0 2.94
3/16/2017 3:00 AM 49 73 0 0 3.31
3/16/2017 4:00 AM 50 76 0 0 3.21
3/16/2017 5:00 AM 52 80 0 0 6.06
3/16/2017 6:00 AM 53 84 0 0 6.12
3/16/2017 7:00 AM 53 87 0 0 6.09
3/16/2017 8:00 AM 54 88 0.01 0 5.1
3/16/2017 9:00 AM 54 87 0.09 0 4.43
3/16/2017 10:00 AM 55 85 0.24 0 4.07
3/16/2017 11:00 AM 56 81 0.48 0 4.73
3/16/2017 12:00 PM 58 78 0.61 0 5.86
3/16/2017 1:00 PM 60 75 0.81 0 5.73
3/16/2017 2:00 PM 63 71 1.04 0 5.05
3/16/2017 3:00 PM 65 70 0.72 0 5.9
3/16/2017 4:00 PM 66 71 0.39 0 4.9
3/16/2017 5:00 PM 68 68 0.63 0 6.04
3/16/2017 6:00 PM 70 64 0.67 0 7
3/16/2017 7:00 PM 70 63 0.32 0 7.11
3/16/2017 8:00 PM 69 63 0.05 0 4.9
3/16/2017 9:00 PM 67 70 0 0 4.46
3/16/2017 10:00 PM 65 74 0 0 4.16
3/16/2017 11:00 PM 64 79 0 0 5.04
Data Summary 58 74 6.06 0.00 4.99